Time;durP1;ratioP1;P1;durP2;ratioP2;P2;SDS_P1;SDS_P2;PMS_P1;PMS_P2;Temp;Humidity;BMP_temperature;BMP_pressure;BME280_temperature;BME280_humidity;BME280_pressure;Samples;Min_cycle;Max_cycle;Signal;HPM_P1;HPM_P2
2022/06/07 00:00:38;;;;;;;2.60;2.40;;;;;;;13.04;100.00;100620.31;4974933;28;20837;-73
2022/06/07 00:03:05;;;;;;;5.43;3.27;;;;;;;13.02;100.00;100624.75;4959832;28;20692;-73
2022/06/07 00:05:32;;;;;;;4.23;3.07;;;;;;;12.89;100.00;100618.25;4968009;28;20200;-73
2022/06/07 00:07:59;;;;;;;3.63;3.03;;;;;;;12.96;100.00;100616.25;4974231;28;20209;-73
2022/06/07 00:10:26;;;;;;;3.23;2.93;;;;;;;12.91;100.00;100618.19;4969607;28;20204;-73
2022/06/07 00:12:54;;;;;;;3.40;2.80;;;;;;;12.91;100.00;100619.06;4964029;28;20203;-73
2022/06/07 00:15:22;;;;;;;4.17;3.33;;;;;;;12.92;100.00;100627.75;4963973;28;20699;-73
2022/06/07 00:17:48;;;;;;;3.73;2.80;;;;;;;12.83;100.00;100621.09;4969990;28;20213;-73
2022/06/07 00:20:15;;;;;;;3.43;2.50;;;;;;;12.78;100.00;100618.63;4967759;28;20243;-73
2022/06/07 00:22:42;;;;;;;4.80;3.20;;;;;;;12.78;100.00;100617.78;4972333;28;20291;-73
2022/06/07 00:25:10;;;;;;;3.27;2.97;;;;;;;12.60;100.00;100621.91;4965354;28;20231;-73
2022/06/07 00:27:37;;;;;;;3.17;2.87;;;;;;;12.69;100.00;100611.97;4969930;28;20703;-73
2022/06/07 00:30:07;;;;;;;4.30;3.00;;;;;;;12.78;100.00;100613.41;4957172;28;20236;-73
2022/06/07 00:32:34;;;;;;;4.23;3.03;;;;;;;12.83;100.00;100608.84;4966983;28;20196;-73
2022/06/07 00:35:01;;;;;;;4.30;3.37;;;;;;;12.74;100.00;100606.56;4966109;28;20579;-73
2022/06/07 00:37:27;;;;;;;5.33;3.10;;;;;;;12.78;100.00;100597.69;4968054;28;20673;-73
2022/06/07 00:39:53;;;;;;;3.30;3.00;;;;;;;12.81;100.00;100602.84;4948114;28;20695;-73
2022/06/07 00:42:20;;;;;;;3.80;3.17;;;;;;;12.76;100.00;100596.06;4969329;28;20208;-73
2022/06/07 00:44:47;;;;;;;3.73;3.20;;;;;;;12.81;100.00;100591.53;4964144;28;20216;-73
2022/06/07 00:47:17;;;;;;;3.20;2.90;;;;;;;12.95;100.00;100589.25;4952615;28;20201;-73
2022/06/07 00:49:47;;;;;;;4.30;3.50;;;;;;;12.91;100.00;100597.25;4966753;28;20249;-73
2022/06/07 00:52:14;;;;;;;3.67;3.00;;;;;;;13.00;100.00;100591.72;4964473;28;20247;-73
2022/06/07 00:54:40;;;;;;;3.80;3.00;;;;;;;13.08;100.00;100584.41;4947168;28;21527;-73
2022/06/07 00:57:21;;;;;;;3.83;3.40;;;;;;;13.08;100.00;100587.03;4961875;28;20265;-73
2022/06/07 00:59:48;;;;;;;4.10;2.90;;;;;;;13.10;100.00;100586.97;4957215;28;20229;-73
2022/06/07 01:02:16;;;;;;;4.47;3.33;;;;;;;13.11;100.00;100583.47;4957447;28;20291;-73
2022/06/07 01:04:43;;;;;;;4.17;3.00;;;;;;;13.14;100.00;100583.31;4963358;28;20240;-73
2022/06/07 01:12:44;;;;;;;3.77;3.20;;;;;;;13.37;100.00;100572.03;4946685;28;20231;-73
2022/06/07 01:15:13;;;;;;;4.90;3.40;;;;;;;13.42;100.00;100564.81;4965791;28;20204;-73
2022/06/07 01:17:42;;;;;;;4.67;3.63;;;;;;;13.42;100.00;100560.47;4967536;28;20764;-74
2022/06/07 01:20:11;;;;;;;3.73;3.20;;;;;;;13.52;100.00;100557.47;4948139;28;20228;-73
2022/06/07 01:22:39;;;;;;;4.43;3.17;;;;;;;13.53;100.00;100552.19;4954032;28;20205;-74
2022/06/07 01:25:08;;;;;;;4.20;3.23;;;;;;;13.52;100.00;100554.84;4965316;28;20260;-73
2022/06/07 01:27:34;;;;;;;3.27;2.77;;;;;;;13.67;100.00;100548.13;4950313;28;20205;-73
2022/06/07 01:30:05;;;;;;;4.57;2.83;;;;;;;13.56;100.00;100541.59;4968068;28;20228;-73
2022/06/07 01:32:31;;;;;;;4.33;3.67;;;;;;;13.45;100.00;100538.53;4963953;28;20296;-73
2022/06/07 01:34:58;;;;;;;4.07;3.50;;;;;;;13.58;100.00;100545.00;4948575;28;21510;-73
2022/06/07 01:37:24;;;;;;;3.97;3.40;;;;;;;13.62;100.00;100543.09;4965621;28;20906;-73
2022/06/07 01:42:37;;;;;;;4.07;3.23;;;;;;;13.65;100.00;100543.00;4974717;28;20220;-74
2022/06/07 01:45:04;;;;;;;4.63;2.80;;;;;;;13.74;100.00;100539.16;4949384;28;20210;-73
2022/06/07 01:47:34;;;;;;;3.83;2.93;;;;;;;13.68;100.00;100544.63;4948085;28;20681;-73
2022/06/07 01:50:02;;;;;;;7.90;2.83;;;;;;;13.74;100.00;100536.53;4948413;28;20574;-73
2022/06/07 01:52:31;;;;;;;3.00;2.60;;;;;;;13.74;100.00;100541.75;4947538;28;20217;-74
2022/06/07 01:55:09;;;;;;;3.30;3.00;;;;;;;13.78;100.00;100544.19;4945797;28;20775;-73
2022/06/07 01:57:45;;;;;;;4.67;3.37;;;;;;;13.73;100.00;100547.91;4949226;28;20243;-73
2022/06/07 02:00:15;;;;;;;5.13;4.00;;;;;;;13.78;100.00;100544.19;4951088;28;20221;-73
2022/06/07 02:02:41;;;;;;;3.83;3.20;;;;;;;13.81;100.00;100541.44;4961787;28;20253;-74
2022/06/07 02:05:10;;;;;;;3.57;3.03;;;;;;;13.80;100.00;100537.09;4944757;28;20220;-73
2022/06/07 02:07:38;;;;;;;3.93;3.40;;;;;;;13.79;100.00;100545.03;4958053;28;20571;-73
2022/06/07 02:10:10;;;;;;;3.60;3.27;;;;;;;13.81;100.00;100533.59;4947908;28;20488;-73
2022/06/07 02:12:36;;;;;;;3.47;2.80;;;;;;;13.80;100.00;100526.63;4950929;28;21328;-74
2022/06/07 02:15:04;;;;;;;3.73;3.13;;;;;;;13.74;100.00;100518.19;4965146;28;20206;-73
2022/06/07 02:17:30;;;;;;;4.37;3.30;;;;;;;13.72;100.00;100515.63;4969208;28;20210;-73
2022/06/07 02:20:12;;;;;;;4.57;3.20;;;;;;;13.79;100.00;100519.69;4950138;28;20252;-73
2022/06/07 02:22:39;;;;;;;4.53;3.17;;;;;;;13.72;100.00;100510.38;4957099;28;20225;-73
2022/06/07 02:25:06;;;;;;;3.57;3.00;;;;;;;13.68;100.00;100519.25;4946165;28;20213;-73
2022/06/07 02:27:34;;;;;;;3.73;3.20;;;;;;;13.71;100.00;100518.31;4972827;28;20213;-73
2022/06/07 02:30:00;;;;;;;3.50;3.20;;;;;;;13.69;100.00;100518.38;4968001;28;20226;-73
2022/06/07 02:32:30;;;;;;;4.30;2.83;;;;;;;13.66;100.00;100523.72;4948777;28;20213;-73
2022/06/07 02:34:59;;;;;;;3.77;3.27;;;;;;;13.55;100.00;100533.78;4960476;28;20231;-73
2022/06/07 02:37:28;;;;;;;3.87;3.40;;;;;;;13.52;100.00;100532.13;4966084;28;20197;-73
2022/06/07 02:39:55;;;;;;;3.53;3.23;;;;;;;13.52;100.00;100529.50;4971101;28;20230;-73
2022/06/07 02:42:25;;;;;;;4.70;3.60;;;;;;;13.52;100.00;100526.88;4953295;28;20213;-73
2022/06/07 02:44:53;;;;;;;3.37;3.07;;;;;;;13.41;100.00;100521.25;4970482;28;20242;-73
2022/06/07 02:47:19;;;;;;;5.20;3.50;;;;;;;13.47;100.00;100513.13;4977404;28;20211;-73
2022/06/07 02:49:52;;;;;;;6.73;3.07;;;;;;;13.48;100.00;100519.22;4968078;28;20213;-74
2022/06/07 02:52:19;;;;;;;5.17;3.40;;;;;;;13.43;100.00;100515.00;4955427;28;20205;-73
2022/06/07 02:54:53;;;;;;;3.30;2.97;;;;;;;13.43;100.00;100516.78;4969444;28;20189;-73
2022/06/07 02:57:19;;;;;;;3.60;3.20;;;;;;;13.44;100.00;100511.50;4953019;28;20306;-73
2022/06/07 02:59:48;;;;;;;4.30;3.20;;;;;;;13.48;100.00;100519.22;4954823;28;20886;-73
2022/06/07 03:02:16;;;;;;;3.17;2.87;;;;;;;13.47;100.00;100520.97;4967236;28;20529;-73
2022/06/07 03:04:42;;;;;;;3.73;3.03;;;;;;;13.43;100.00;100522.88;4952816;28;20205;-74
2022/06/07 03:07:10;;;;;;;4.43;3.77;;;;;;;13.48;100.00;100525.31;4951222;28;20284;-73
2022/06/07 03:09:36;;;;;;;7.10;3.73;;;;;;;13.44;100.00;100526.38;4953421;28;20608;-74
2022/06/07 03:12:04;;;;;;;6.30;3.80;;;;;;;13.50;100.00;100528.72;4968074;28;20627;-74
2022/06/07 03:14:31;;;;;;;3.57;3.27;;;;;;;13.52;100.00;100531.28;4965689;28;20211;-73
2022/06/07 03:17:00;;;;;;;4.53;3.53;;;;;;;13.61;100.00;100534.41;4967215;28;20205;-74
2022/06/07 03:19:32;;;;;;;4.10;3.47;;;;;;;13.74;100.00;100536.53;4952586;28;20236;-73
2022/06/07 03:21:59;;;;;;;6.23;3.80;;;;;;;13.83;100.00;100533.53;4976001;28;20208;-73
2022/06/07 03:24:27;;;;;;;3.87;3.47;;;;;;;13.83;100.00;100531.75;4950372;28;20725;-73
2022/06/07 03:26:54;;;;;;;4.70;4.20;;;;;;;13.80;100.00;100534.47;4951701;28;20227;-73
2022/06/07 03:29:21;;;;;;;4.77;4.27;;;;;;;13.81;100.00;100525.72;4962139;28;20253;-73
2022/06/07 03:31:49;;;;;;;4.00;3.60;;;;;;;13.90;100.00;100518.41;4953273;28;20208;-73
2022/06/07 03:34:19;;;;;;;7.07;4.10;;;;;;;14.01;100.00;100506.53;4949871;28;20198;-73
2022/06/07 03:36:47;;;;;;;4.80;3.77;;;;;;;14.17;100.00;100526.88;4953778;28;20225;-73
2022/06/07 03:39:14;;;;;;;6.10;3.87;;;;;;;14.26;100.00;100523.00;4948789;28;20597;-74
2022/06/07 03:41:53;;;;;;;5.77;3.97;;;;;;;14.33;100.00;100530.53;4949120;28;20228;-74
2022/06/07 03:44:24;;;;;;;6.40;3.90;;;;;;;14.34;100.00;100532.22;4967458;28;20198;-73
2022/06/07 03:46:57;;;;;;;4.23;3.77;;;;;;;14.43;100.00;100532.75;4963188;28;20753;-73
2022/06/07 03:49:23;;;;;;;5.90;4.23;;;;;;;14.53;100.00;100539.31;4950732;28;20669;-73
2022/06/07 03:51:54;;;;;;;6.10;4.27;;;;;;;14.62;100.00;100548.59;4953011;28;20198;-74
2022/06/07 03:54:20;;;;;;;6.40;3.93;;;;;;;14.62;100.00;100536.31;4947037;28;20289;-74
2022/06/07 03:56:50;;;;;;;4.53;3.97;;;;;;;14.68;100.00;100535.19;4960540;28;20193;-74
2022/06/07 03:59:18;;;;;;;3.90;3.30;;;;;;;14.70;100.00;100544.66;4951815;28;20288;-73
2022/06/07 04:01:44;;;;;;;5.77;3.50;;;;;;;14.83;100.00;100537.13;4949205;28;20222;-74
2022/06/07 04:04:11;;;;;;;4.90;4.10;;;;;;;14.96;100.00;100548.75;4961172;28;20237;-73
2022/06/07 04:06:40;;;;;;;4.67;3.40;;;;;;;14.94;100.00;100547.13;4948662;28;20593;-73
2022/06/07 04:09:18;;;;;;;4.40;3.80;;;;;;;14.98;100.00;100546.06;4948460;28;20233;-73
2022/06/07 04:11:47;;;;;;;5.67;3.83;;;;;;;14.88;100.00;100537.78;4954715;28;20212;-74
2022/06/07 04:14:14;;;;;;;5.33;4.13;;;;;;;14.95;100.00;100544.44;4957501;28;20728;-74
2022/06/07 04:16:41;;;;;;;5.03;3.80;;;;;;;15.00;100.00;100543.38;4956617;28;20696;-73
2022/06/07 04:19:15;;;;;;;4.67;4.03;;;;;;;15.07;100.00;100540.38;4955248;28;20711;-74
2022/06/07 04:21:42;;;;;;;6.33;4.27;;;;;;;15.09;100.00;100540.31;4970953;28;20649;-74
2022/06/07 04:24:19;;;;;;;6.60;4.00;;;;;;;15.13;100.00;100539.28;4950267;28;20208;-74
2022/06/07 04:26:47;;;;;;;4.20;3.80;;;;;;;15.16;100.00;100541.72;4956002;28;20279;-74
2022/06/07 04:29:14;;;;;;;5.50;3.93;;;;;;;15.18;100.00;100542.53;4948429;28;20229;-73
2022/06/07 04:31:40;;;;;;;6.10;3.97;;;;;;;15.23;100.00;100548.44;4960527;28;20288;-74
2022/06/07 04:34:12;;;;;;;3.93;3.47;;;;;;;15.29;100.00;100548.13;4955450;28;21280;-73
2022/06/07 04:36:39;;;;;;;5.43;3.97;;;;;;;15.29;100.00;100547.28;4943293;28;20685;-74
2022/06/07 04:39:09;;;;;;;4.70;3.60;;;;;;;15.31;100.00;100542.81;4948590;28;20694;-74
2022/06/07 04:41:42;;;;;;;4.73;3.80;;;;;;;15.38;100.00;100546.84;4943636;28;20741;-74
2022/06/07 04:44:12;;;;;;;4.70;3.97;;;;;;;15.43;100.00;100541.38;4960781;28;20621;-74
2022/06/07 04:46:38;;;;;;;4.87;3.17;;;;;;;15.49;100.00;100535.81;4962272;28;20240;-74
2022/06/07 04:49:07;;;;;;;4.43;3.57;;;;;;;15.53;100.00;100542.63;4950889;28;20214;-74
2022/06/07 04:51:36;;;;;;;3.87;3.47;;;;;;;15.61;100.00;100539.63;4951816;28;20229;-73
2022/06/07 04:54:12;;;;;;;3.87;3.50;;;;;;;15.68;100.00;100535.78;4962950;28;20767;-74
2022/06/07 04:56:43;;;;;;;4.53;3.73;;;;;;;15.77;100.00;100531.88;4961466;28;20640;-74
2022/06/07 04:59:12;;;;;;;6.07;3.90;;;;;;;15.81;100.00;100546.56;4948522;28;20229;-74
2022/06/07 05:01:44;;;;;;;5.10;4.13;;;;;;;15.82;100.00;100545.66;4962202;28;20436;-74
2022/06/07 05:04:18;;;;;;;5.13;4.13;;;;;;;15.86;100.00;100534.91;4948066;28;20296;-73
2022/06/07 05:06:46;;;;;;;6.47;4.23;;;;;;;15.93;100.00;100527.56;4968163;28;20197;-73
2022/06/07 05:09:32;;;;;;;4.97;3.60;;;;;;;16.04;100.00;100534.91;4950987;28;21492;-73
2022/06/07 05:12:08;;;;;;;4.77;3.67;;;;;;;16.13;100.00;100542.34;4963739;28;20194;-73
2022/06/07 05:14:40;;;;;;;4.33;3.37;;;;;;;16.24;100.00;100542.66;4943787;28;20205;-73
2022/06/07 05:17:07;;;;;;;4.67;3.47;;;;;;;16.39;100.00;100530.50;4946016;28;20233;-72
2022/06/07 05:19:37;;;;;;;7.10;3.70;;;;;;;16.46;100.00;100531.00;4945504;28;20240;-73
2022/06/07 05:22:10;;;;;;;3.50;3.20;;;;;;;16.56;100.00;100536.66;4934616;28;20221;-73
2022/06/07 05:24:42;;;;;;;3.90;3.43;;;;;;;16.71;100.00;100535.84;4941017;28;20238;-72
2022/06/07 05:27:15;;;;;;;3.80;3.37;;;;;;;16.93;100.00;100532.09;4967141;28;20209;-73
2022/06/07 05:29:49;;;;;;;5.20;3.57;;;;;;;17.13;100.00;100533.63;4963450;28;20306;-73
2022/06/07 05:32:26;;;;;;;6.13;3.40;;;;;;;17.25;100.00;100540.84;4946600;28;20633;-73
2022/06/07 05:34:54;;;;;;;4.10;3.50;;;;;;;17.26;100.00;100536.47;4943513;28;20289;-73
2022/06/07 05:37:23;;;;;;;3.67;3.20;;;;;;;17.28;100.00;100543.31;4970496;28;20661;-73
2022/06/07 05:40:03;;;;;;;5.67;3.30;;;;;;;17.36;100.00;100545.53;4958377;28;20303;-73
2022/06/07 05:42:32;;;;;;;3.03;2.73;;;;;;;17.50;100.00;100544.75;4955634;28;20225;-73
2022/06/07 05:44:58;;;;;;;3.83;3.00;;;;;;;17.68;100.00;100549.00;4964542;28;20214;-73
2022/06/07 05:47:26;;;;;;;3.50;3.13;;;;;;;17.82;100.00;100560.53;4957126;28;20293;-73
2022/06/07 05:49:55;;;;;;;3.43;3.10;;;;;;;18.04;100.00;100570.72;4957705;28;20279;-73
2022/06/07 05:52:24;;;;;;;3.30;3.00;;;;;;;18.26;100.00;100572.97;4957541;28;20359;-73
2022/06/07 05:54:53;;;;;;;3.13;2.83;;;;;;;18.47;100.00;100568.22;4953064;28;20690;-73
2022/06/07 05:57:19;;;;;;;3.10;2.70;;;;;;;18.64;100.00;100573.28;4950156;28;20292;-73
2022/06/07 05:59:49;;;;;;;6.00;3.30;;;;;;;18.66;100.00;100574.06;4957679;28;20217;-73
2022/06/07 06:02:17;;;;;;;2.93;2.63;;;;;;;18.65;100.00;100569.72;4949544;28;20706;-73
2022/06/07 06:04:44;;;;;;;2.50;2.30;;;;;;;18.76;99.82;100571.69;4970087;28;20205;-73
2022/06/07 06:07:12;;;;;;;3.10;2.80;;;;;;;18.73;97.38;100570.09;4952683;28;20707;-73
2022/06/07 06:12:36;;;;;;;2.87;2.67;;;;;;;18.98;98.31;100573.03;4969459;28;20685;-73
2022/06/07 06:18:39;;;;;;;2.93;2.50;;;;;;;19.03;96.85;100563.91;4974178;28;20210;-73
2022/06/07 06:21:06;;;;;;;2.50;2.30;;;;;;;19.08;95.81;100574.16;4962164;28;20300;-73
2022/06/07 06:23:33;;;;;;;2.40;2.20;;;;;;;19.21;96.97;100580.41;4972004;28;20221;-73
2022/06/07 06:26:00;;;;;;;2.93;2.63;;;;;;;19.32;94.91;100584.16;4962573;28;20205;-73
2022/06/07 06:32:32;;;;;;;2.63;2.30;;;;;;;19.43;95.09;100584.31;4979890;28;20204;-73
2022/06/07 06:42:36;;;;;;;5.47;2.70;;;;;;;19.67;92.33;100589.81;4977512;28;20231;-73
2022/06/07 06:45:22;;;;;;;3.00;2.17;;;;;;;19.57;92.57;100584.28;4963571;28;20213;-73
2022/06/07 06:47:53;;;;;;;2.40;2.20;;;;;;;19.56;92.30;100584.38;4958020;28;20210;-73
2022/06/07 06:50:19;;;;;;;2.60;2.33;;;;;;;19.44;93.41;100588.66;4979849;28;20285;-73
2022/06/07 06:57:28;;;;;;;2.77;2.40;;;;;;;19.09;96.83;100600.50;4972018;28;20236;-73
2022/06/07 07:04:11;;;;;;;3.10;2.80;;;;;;;18.69;94.26;100584.41;4970172;28;20540;-73
2022/06/07 07:06:45;;;;;;;3.10;2.80;;;;;;;18.66;95.96;100583.75;4971044;28;20198;-73
2022/06/07 07:16:53;;;;;;;2.53;2.30;;;;;;;18.34;100.00;100586.53;4978998;28;20636;-73
2022/06/07 07:26:58;;;;;;;3.37;2.63;;;;;;;18.05;100.00;100564.53;4973340;28;20378;-73
2022/06/07 07:30:22;;;;;;;4.27;3.10;;;;;;;17.98;100.00;100564.03;4954764;28;20232;-73
2022/06/07 07:33:01;;;;;;;3.57;3.27;;;;;;;17.97;100.00;100571.06;4979773;28;20220;-73
2022/06/07 07:35:38;;;;;;;3.53;3.20;;;;;;;18.04;100.00;100571.56;4954740;28;20206;-73
2022/06/07 07:42:07;;;;;;;3.03;2.77;;;;;;;18.02;100.00;100570.81;4971049;28;20293;-73
2022/06/07 07:56:26;;;;;;;3.20;2.90;;;;;;;17.87;100.00;100571.69;4970884;28;20200;-73
2022/06/07 07:58:58;;;;;;;3.20;2.87;;;;;;;17.85;100.00;100569.09;4973935;28;20363;-73
2022/06/07 08:01:29;;;;;;;3.13;2.83;;;;;;;17.85;100.00;100571.75;4955387;28;20225;-73
2022/06/07 08:03:58;;;;;;;3.03;2.70;;;;;;;17.85;100.00;100571.75;4953580;28;20190;-73
2022/06/07 08:06:33;;;;;;;3.87;2.83;;;;;;;17.77;100.00;100580.09;4963011;28;20284;-73
2022/06/07 08:09:02;;;;;;;3.90;3.10;;;;;;;17.78;100.00;100578.31;4973421;28;20230;-73
2022/06/07 08:11:32;;;;;;;3.13;2.90;;;;;;;17.73;100.00;100581.22;4964614;28;20826;-73
2022/06/07 08:14:01;;;;;;;3.63;3.17;;;;;;;17.70;100.00;100576.13;4973436;28;20206;-73
2022/06/07 08:16:28;;;;;;;4.97;3.40;;;;;;;17.69;100.00;100577.03;4966757;28;20201;-73
2022/06/07 08:18:54;;;;;;;3.23;2.93;;;;;;;17.67;100.00;100573.66;4966168;28;20491;-73
2022/06/07 08:21:25;;;;;;;4.13;3.03;;;;;;;17.64;100.00;100581.72;4975191;28;20236;-73
2022/06/07 08:23:52;;;;;;;3.93;3.13;;;;;;;17.65;100.00;100586.06;4960769;28;20281;-73
2022/06/07 08:26:19;;;;;;;3.50;3.20;;;;;;;17.69;100.00;100581.47;4966526;28;20774;-73
2022/06/07 08:28:46;;;;;;;4.80;3.70;;;;;;;17.71;100.00;100585.75;4969506;28;20305;-73
2022/06/07 08:31:17;;;;;;;4.40;3.77;;;;;;;17.69;100.00;100587.59;4967963;28;20210;-73
2022/06/07 08:39:38;;;;;;;3.93;3.53;;;;;;;17.59;100.00;100582.00;4972604;28;20531;-73
2022/06/07 08:42:16;;;;;;;4.13;3.73;;;;;;;17.59;100.00;100579.38;4964505;28;20713;-73
2022/06/07 08:44:46;;;;;;;5.20;3.50;;;;;;;17.68;100.00;100579.78;4967278;28;20279;-73
2022/06/07 08:47:19;;;;;;;6.03;3.60;;;;;;;17.75;100.00;100583.78;4966500;28;20217;-73
2022/06/07 08:49:46;;;;;;;3.77;3.17;;;;;;;17.79;100.00;100591.41;4972177;28;20438;-73
2022/06/07 08:52:16;;;;;;;3.77;3.20;;;;;;;17.78;100.00;100587.09;4975094;28;20210;-73
2022/06/07 08:54:44;;;;;;;3.60;3.20;;;;;;;17.74;100.00;100595.25;4976080;28;20382;-73
2022/06/07 08:57:20;;;;;;;3.80;3.23;;;;;;;17.64;100.00;100594.91;4971040;28;20558;-73
2022/06/07 08:59:49;;;;;;;3.93;2.73;;;;;;;17.56;100.00;100602.41;4978248;28;20577;-73
2022/06/07 09:02:37;;;;;;;3.40;3.10;;;;;;;17.48;100.00;100597.53;4971086;28;20228;-73
2022/06/07 09:05:04;;;;;;;2.90;2.60;;;;;;;17.38;100.00;100596.38;4975941;28;20213;-73
2022/06/07 09:07:30;;;;;;;3.47;2.60;;;;;;;17.36;100.00;100593.81;4973633;28;20198;-73
2022/06/07 09:12:58;;;;;;;3.17;2.57;;;;;;;17.16;100.00;100581.72;4969902;28;20208;-74
2022/06/07 09:15:26;;;;;;;3.00;2.40;;;;;;;17.12;100.00;100582.84;4957792;28;20209;-74
2022/06/07 09:17:58;;;;;;;2.17;1.90;;;;;;;17.16;100.00;100572.97;4972673;28;20213;-73
2022/06/07 09:20:27;;;;;;;2.13;1.80;;;;;;;17.19;100.00;100557.84;4969144;28;20623;-73
2022/06/07 09:22:58;;;;;;;2.67;2.00;;;;;;;17.16;100.00;100557.19;4968449;28;20701;-74
2022/06/07 09:25:29;;;;;;;1.80;1.70;;;;;;;17.19;100.00;100552.59;4965578;28;20201;-73
2022/06/07 09:27:58;;;;;;;2.00;1.60;;;;;;;17.32;100.00;100544.00;4968126;28;20206;-73
2022/06/07 09:30:28;;;;;;;2.03;1.83;;;;;;;17.32;100.00;100562.44;4975641;28;21362;-73
2022/06/07 09:32:56;;;;;;;2.63;1.80;;;;;;;17.36;100.00;100549.03;4977517;28;20882;-74
2022/06/07 09:35:34;;;;;;;2.00;1.87;;;;;;;17.46;100.00;100538.81;4966905;28;20216;-73
2022/06/07 09:38:03;;;;;;;1.60;1.50;;;;;;;17.52;100.00;100537.59;4965794;28;20209;-73
2022/06/07 09:40:32;;;;;;;1.83;1.70;;;;;;;17.53;100.00;100526.13;4968547;28;20394;-73
2022/06/07 09:43:05;;;;;;;2.00;1.80;;;;;;;17.60;100.00;100536.22;4968795;28;20229;-73
2022/06/07 09:45:37;;;;;;;2.33;1.80;;;;;;;17.64;100.00;100531.63;4969908;28;20194;-73
2022/06/07 09:48:27;;;;;;;1.80;1.60;;;;;;;17.78;100.00;100529.09;4975160;28;20205;-73
2022/06/07 09:50:59;;;;;;;2.20;1.87;;;;;;;17.92;100.00;100527.44;4974527;28;20281;-73
2022/06/07 09:53:32;;;;;;;2.10;1.90;;;;;;;18.04;100.00;100531.16;4962435;28;20198;-73
2022/06/07 09:56:17;;;;;;;1.93;1.80;;;;;;;18.17;100.00;100529.50;4961830;28;20299;-73
2022/06/07 09:58:55;;;;;;;2.67;1.80;;;;;;;18.41;100.00;100526.31;4967653;28;20217;-74
2022/06/07 10:01:27;;;;;;;2.47;2.00;;;;;;;18.51;100.00;100532.75;4969579;28;20566;-73
2022/06/07 10:04:06;;;;;;;1.97;1.73;;;;;;;18.62;100.00;100543.50;4971895;28;20209;-73
2022/06/07 10:06:38;;;;;;;2.23;1.87;;;;;;;18.77;100.00;100546.13;4968448;28;20228;-73
2022/06/07 10:09:21;;;;;;;2.80;1.80;;;;;;;18.91;99.43;100544.38;4968840;28;20243;-73
2022/06/07 10:12:01;;;;;;;1.97;1.83;;;;;;;19.17;100.00;100541.03;4972929;28;20198;-73
2022/06/07 10:14:41;;;;;;;1.80;1.70;;;;;;;19.37;100.00;100535.34;4975365;28;20208;-73
2022/06/07 10:17:31;;;;;;;2.23;1.90;;;;;;;19.67;100.00;100536.94;4971282;28;20197;-73
2022/06/07 10:20:06;;;;;;;2.30;1.90;;;;;;;19.76;99.16;100538.16;4972579;28;20654;-73
2022/06/07 10:22:55;;;;;;;1.90;1.70;;;;;;;20.01;97.79;100547.94;4970434;28;20637;-73
2022/06/07 10:25:33;;;;;;;1.77;1.67;;;;;;;20.22;95.26;100553.59;4969579;28;20206;-73
2022/06/07 10:28:15;;;;;;;1.80;1.70;;;;;;;20.33;93.59;100559.00;4966765;28;20265;-73
2022/06/07 10:30:51;;;;;;;2.20;1.83;;;;;;;20.46;91.14;100560.84;4972081;28;20201;-73
2022/06/07 10:33:42;;;;;;;2.30;1.63;;;;;;;20.48;89.34;100561.56;4970984;28;20291;-73
2022/06/07 10:36:21;;;;;;;2.57;1.90;;;;;;;20.49;86.67;100558.81;4969874;28;20602;-73
2022/06/07 10:38:58;;;;;;;2.17;1.73;;;;;;;20.59;88.46;100559.84;4972861;28;20224;-73
2022/06/07 10:41:33;;;;;;;1.57;1.47;;;;;;;20.65;88.64;100558.63;4969519;28;20216;-73
2022/06/07 10:44:06;;;;;;;1.87;1.67;;;;;;;20.66;86.09;100552.38;4973763;28;20201;-73
2022/06/07 10:46:35;;;;;;;2.07;1.87;;;;;;;20.65;83.91;100555.13;4966915;28;20435;-73
2022/06/07 10:49:14;;;;;;;1.53;1.43;;;;;;;20.67;83.94;100551.44;4971679;28;20230;-73
2022/06/07 10:54:44;;;;;;;1.85;1.67;;;;;;;20.84;86.82;100552.03;4968878;28;20214;-73
2022/06/07 10:57:17;;;;;;;1.70;1.60;;;;;;;20.91;86.85;100556.78;4971612;28;20205;-73
2022/06/07 10:59:44;;;;;;;1.60;1.40;;;;;;;20.84;81.16;100560.00;4965767;28;20229;-73
2022/06/07 11:02:20;;;;;;;1.50;1.40;;;;;;;20.91;80.42;100564.72;4964819;28;20225;-73
2022/06/07 11:10:38;;;;;;;1.75;1.58;;;;;;;20.99;83.07;100551.81;4953969;23;20539;-71
2022/06/07 11:13:17;;;;;;;1.95;1.70;;;;;;;20.97;79.67;100564.31;4955529;28;20209;-69
2022/06/07 11:15:52;;;;;;;1.75;1.65;;;;;;;20.98;81.83;100560.72;4940084;28;20231;-71
2022/06/07 11:18:22;;;;;;;1.77;1.67;;;;;;;21.05;79.87;100547.03;4928064;29;20215;-71
2022/06/07 11:20:50;;;;;;;1.88;1.50;;;;;;;21.14;80.50;100543.72;4925158;29;20611;-71
2022/06/07 11:23:29;;;;;;;1.80;1.40;;;;;;;21.36;80.92;100553.63;4935129;29;20234;-72
2022/06/07 11:26:01;;;;;;;2.13;1.80;;;;;;;21.49;80.71;100543.00;4921484;29;20775;-72
2022/06/07 11:28:31;;;;;;;1.65;1.50;;;;;;;21.63;80.23;100549.94;4933407;29;20207;-70
2022/06/07 11:31:02;;;;;;;2.10;1.50;;;;;;;21.64;80.44;100541.03;4930270;29;20235;-72
2022/06/07 11:33:38;;;;;;;1.70;1.50;;;;;;;21.72;79.51;100547.47;4933803;29;20415;-72
2022/06/07 11:36:09;;;;;;;1.60;1.50;;;;;;;21.78;77.25;100547.97;4928005;29;20227;-70
2022/06/07 11:39:00;;;;;;;1.70;1.60;;;;;;;21.66;77.84;100555.84;4930368;29;20215;-72
2022/06/07 11:41:46;;;;;;;1.60;1.50;;;;;;;21.62;77.79;100543.78;4926378;29;20213;-72
2022/06/07 11:44:35;;;;;;;1.60;1.50;;;;;;;21.57;77.01;100551.25;4925388;29;20672;-71
2022/06/07 11:47:19;;;;;;;3.33;1.70;;;;;;;21.53;75.90;100558.56;4927209;29;20220;-70
2022/06/07 11:49:58;;;;;;;1.48;1.38;;;;;;;21.55;78.36;100554.00;4927287;29;20633;-72
2022/06/07 11:52:27;;;;;;;2.65;1.70;;;;;;;21.57;75.63;100548.59;4923640;29;20203;-71
2022/06/07 11:54:58;;;;;;;3.33;1.70;;;;;;;21.57;76.55;100551.25;4930825;29;20203;-72
2022/06/07 11:57:31;;;;;;;1.60;1.50;;;;;;;21.58;75.59;100549.41;4924004;29;20211;-70
2022/06/07 12:00:00;;;;;;;2.85;1.60;;;;;;;21.55;74.57;100553.16;4927364;29;20665;-71
2022/06/07 12:02:31;;;;;;;1.60;1.50;;;;;;;21.48;74.52;100557.22;4923093;29;20223;-72
2022/06/07 12:05:04;;;;;;;1.70;1.60;;;;;;;21.50;77.01;100548.19;4931094;29;20199;-70
2022/06/07 12:07:42;;;;;;;1.83;1.60;;;;;;;21.54;78.66;100541.69;4935128;29;20278;-72
2022/06/07 12:10:26;;;;;;;3.72;1.77;;;;;;;21.53;74.91;100539.16;4935170;29;20226;-72
2022/06/07 12:12:55;;;;;;;3.88;1.85;;;;;;;21.52;75.90;100543.59;4931866;29;20198;-71
2022/06/07 12:15:25;;;;;;;2.05;1.80;;;;;;;21.50;74.33;100544.69;4927109;29;20707;-71
2022/06/07 12:17:54;;;;;;;1.65;1.55;;;;;;;21.44;73.71;100553.06;4930581;29;20206;-70
2022/06/07 12:20:27;;;;;;;1.77;1.67;;;;;;;21.40;76.31;100536.50;4927523;29;20224;-71
2022/06/07 12:22:57;;;;;;;3.85;1.92;;;;;;;21.38;74.87;100535.78;4925747;29;20211;-70
2022/06/07 12:25:26;;;;;;;1.70;1.60;;;;;;;21.28;75.19;100534.75;4926945;29;20231;-71
2022/06/07 12:27:54;;;;;;;1.92;1.80;;;;;;;21.24;76.58;100530.66;4922286;29;20572;-71
2022/06/07 12:30:25;;;;;;;1.92;1.75;;;;;;;21.17;72.91;100540.84;4932834;29;20215;-71
2022/06/07 12:32:54;;;;;;;2.42;1.80;;;;;;;21.11;73.98;100534.19;4927405;29;20302;-71
2022/06/07 12:35:23;;;;;;;2.20;1.83;;;;;;;21.10;75.64;100529.81;4930809;29;20226;-69
2022/06/07 12:37:53;;;;;;;2.28;1.80;;;;;;;21.08;74.28;100520.31;4926078;29;20229;-72
2022/06/07 12:40:34;;;;;;;2.13;1.92;;;;;;;21.17;76.77;100511.69;4926636;29;20615;-71
2022/06/07 12:43:02;;;;;;;2.03;1.83;;;;;;;21.30;74.69;100511.63;4924618;29;20230;-72
2022/06/07 12:45:33;;;;;;;2.28;1.98;;;;;;;21.50;76.24;100513.69;4931632;29;20751;-72
2022/06/07 12:48:06;;;;;;;1.85;1.75;;;;;;;21.70;76.66;100509.56;4937488;29;20203;-71
2022/06/07 12:50:38;;;;;;;3.10;1.80;;;;;;;21.81;75.72;100510.56;4927772;29;20218;-70
2022/06/07 12:53:05;;;;;;;2.13;1.95;;;;;;;21.79;73.96;100513.31;4925906;29;20263;-69
2022/06/07 12:55:36;;;;;;;3.22;2.38;;;;;;;21.65;71.83;100517.03;4930653;29;20211;-72
2022/06/07 12:58:07;;;;;;;2.13;1.92;;;;;;;21.71;73.72;100510.44;4934458;29;20282;-70
2022/06/07 13:00:42;;;;;;;2.25;1.80;;;;;;;21.85;75.41;100506.75;4932217;29;20207;-72